SAS666 EKVG-ENBR
Flight info
| Callsign | SAS666 |
|---|---|
| Flight time | 1h 0m |
| Altitude | 35000 |
| Route | ODEVA DCT VALDI/N0449F350 DCT ETNOR |
| Aircraft | A321/M-SDE3FGHIRWY/LB1 |
Departure
| Time | 2026-04-27 15:56 |
|---|---|
| Airport | Vágar Airport (EKVG) |
Arrival
| Time | 2026-04-27 16:57 |
|---|---|
| Airport | Bergen Airport, Flesland (ENBR) |
| Time | Latitude | Longitude | Altitude | Speed | Heading |
|---|---|---|---|---|---|
| 2026-04-27 15:34 | 62.06689 | -7.27946 | 294 ft | 0 kts | 28° |
| 2026-04-27 15:35 | 62.06712 | -7.28026 | 294 ft | 0 kts | 76° |
| 2026-04-27 15:39 | 62.06689 | -7.27946 | 289 ft | 0 kts | 28° |
| 2026-04-27 15:41 | 62.06672 | -7.27861 | 292 ft | 0 kts | 28° |
| 2026-04-27 15:50 | 62.06662 | -7.27873 | 295 ft | 3 kts | 28° |
| 2026-04-27 15:51 | 62.06645 | -7.27892 | 294 ft | 3 kts | 28° |
| 2026-04-27 15:51 | 62.06634 | -7.27904 | 294 ft | 0 kts | 28° |
| 2026-04-27 15:52 | 62.06647 | -7.27898 | 294 ft | 6 kts | 1° |
| 2026-04-27 15:52 | 62.06634 | -7.28020 | 295 ft | 11 kts | 227° |
| 2026-04-27 15:53 | 62.06569 | -7.28088 | 288 ft | 12 kts | 202° |
| 2026-04-27 15:53 | 62.06486 | -7.28214 | 286 ft | 13 kts | 279° |
| 2026-04-27 15:53 | 62.06531 | -7.28421 | 282 ft | 17 kts | 301° |
| 2026-04-27 15:53 | 62.06585 | -7.28637 | 282 ft | 17 kts | 297° |
| 2026-04-27 15:54 | 62.06642 | -7.28846 | 284 ft | 15 kts | 301° |
| 2026-04-27 15:54 | 62.06695 | -7.29047 | 282 ft | 15 kts | 299° |
| 2026-04-27 15:54 | 62.06736 | -7.29214 | 275 ft | 9 kts | 268° |
| 2026-04-27 15:54 | 62.06718 | -7.29225 | 275 ft | 1 kts | 132° |
| 2026-04-27 15:55 | 62.06712 | -7.29164 | 276 ft | 5 kts | 103° |
| 2026-04-27 15:55 | 62.06706 | -7.29124 | 280 ft | 5 kts | 111° |
| 2026-04-27 15:55 | 62.06547 | -7.28479 | 282 ft | 89 kts | 117° |
| 2026-04-27 15:55 | 62.06145 | -7.26857 | 284 ft | 157 kts | 120° |
| 2026-04-27 15:56 | 62.05601 | -7.24618 | 832 ft | 180 kts | 120° |
| 2026-04-27 15:56 | 62.05003 | -7.22215 | 1673 ft | 182 kts | 121° |
| 2026-04-27 15:56 | 62.04400 | -7.19823 | 2249 ft | 188 kts | 121° |
| 2026-04-27 15:56 | 62.03740 | -7.17219 | 2503 ft | 210 kts | 121° |
| 2026-04-27 15:57 | 62.03019 | -7.14366 | 2685 ft | 233 kts | 120° |
| 2026-04-27 15:57 | 62.02208 | -7.11146 | 2918 ft | 258 kts | 120° |
| 2026-04-27 15:57 | 62.01347 | -7.07701 | 3548 ft | 267 kts | 120° |
| 2026-04-27 15:57 | 62.00476 | -7.04159 | 4281 ft | 272 kts | 118° |
| 2026-04-27 15:58 | 61.99629 | -7.00518 | 5034 ft | 276 kts | 117° |
| 2026-04-27 15:58 | 61.98797 | -6.96856 | 5747 ft | 280 kts | 117° |
| 2026-04-27 15:58 | 61.97947 | -6.93090 | 6462 ft | 283 kts | 116° |
| 2026-04-27 15:58 | 61.97082 | -6.89265 | 7151 ft | 287 kts | 116° |
| 2026-04-27 15:59 | 61.96217 | -6.85466 | 7810 ft | 290 kts | 116° |
| 2026-04-27 15:59 | 61.95326 | -6.81583 | 8487 ft | 294 kts | 116° |
| 2026-04-27 15:59 | 61.94420 | -6.77655 | 9165 ft | 297 kts | 116° |
| 2026-04-27 15:59 | 61.93496 | -6.73693 | 9845 ft | 300 kts | 117° |
| 2026-04-27 16:00 | 61.92558 | -6.69697 | 10487 ft | 304 kts | 117° |
| 2026-04-27 16:00 | 61.91920 | -6.66972 | 10643 ft | 318 kts | 116° |
| 2026-04-27 16:00 | 61.90646 | -6.61062 | 10806 ft | 345 kts | 109° |
| 2026-04-27 16:00 | 61.90038 | -6.56012 | 10999 ft | 361 kts | 98° |
| 2026-04-27 16:01 | 61.89639 | -6.50698 | 11474 ft | 367 kts | 98° |
| 2026-04-27 16:01 | 61.89224 | -6.45326 | 12044 ft | 370 kts | 98° |
| 2026-04-27 16:01 | 61.88797 | -6.39909 | 12636 ft | 373 kts | 98° |
| 2026-04-27 16:01 | 61.88356 | -6.34450 | 13209 ft | 377 kts | 99° |
| 2026-04-27 16:02 | 61.87904 | -6.28948 | 13773 ft | 380 kts | 98° |
| 2026-04-27 16:02 | 61.87445 | -6.23382 | 14317 ft | 384 kts | 98° |
| 2026-04-27 16:02 | 61.86991 | -6.17857 | 14791 ft | 387 kts | 98° |
| 2026-04-27 16:02 | 61.86526 | -6.12199 | 15273 ft | 391 kts | 98° |
| 2026-04-27 16:03 | 61.86056 | -6.06502 | 15749 ft | 394 kts | 98° |
| 2026-04-27 16:03 | 61.85578 | -6.00746 | 16236 ft | 398 kts | 98° |
| 2026-04-27 16:03 | 61.85096 | -5.94946 | 16720 ft | 402 kts | 98° |
| 2026-04-27 16:03 | 61.84610 | -5.89088 | 17202 ft | 405 kts | 98° |
| 2026-04-27 16:04 | 61.84116 | -5.83184 | 17677 ft | 409 kts | 98° |
| 2026-04-27 16:04 | 61.83613 | -5.77237 | 18151 ft | 413 kts | 98° |
| 2026-04-27 16:04 | 61.83101 | -5.71206 | 18630 ft | 416 kts | 98° |
| 2026-04-27 16:04 | 61.82585 | -5.65164 | 19040 ft | 419 kts | 98° |
| 2026-04-27 16:05 | 61.82070 | -5.59194 | 19441 ft | 421 kts | 98° |
| 2026-04-27 16:05 | 61.81532 | -5.52965 | 19881 ft | 423 kts | 98° |
| 2026-04-27 16:05 | 61.81000 | -5.46818 | 20309 ft | 425 kts | 97° |
| 2026-04-27 16:05 | 61.80463 | -5.40665 | 20759 ft | 426 kts | 97° |
| 2026-04-27 16:06 | 61.79923 | -5.34489 | 21183 ft | 428 kts | 97° |
| 2026-04-27 16:06 | 61.79376 | -5.28285 | 21597 ft | 430 kts | 97° |
| 2026-04-27 16:06 | 61.78828 | -5.22155 | 22000 ft | 432 kts | 97° |
| 2026-04-27 16:06 | 61.78265 | -5.15890 | 22401 ft | 434 kts | 97° |
| 2026-04-27 16:07 | 61.77698 | -5.09599 | 22810 ft | 436 kts | 97° |
| 2026-04-27 16:07 | 61.77131 | -5.03281 | 23209 ft | 438 kts | 97° |
| 2026-04-27 16:07 | 61.76557 | -4.96934 | 23623 ft | 440 kts | 97° |
| 2026-04-27 16:07 | 61.75974 | -4.90568 | 24016 ft | 442 kts | 97° |
| 2026-04-27 16:08 | 61.75384 | -4.84162 | 24337 ft | 444 kts | 97° |
| 2026-04-27 16:08 | 61.74794 | -4.77738 | 24664 ft | 446 kts | 97° |
| 2026-04-27 16:08 | 61.74201 | -4.71280 | 24982 ft | 448 kts | 97° |
| 2026-04-27 16:08 | 61.73610 | -4.64874 | 25294 ft | 451 kts | 97° |
| 2026-04-27 16:09 | 61.73003 | -4.58377 | 25602 ft | 453 kts | 97° |
| 2026-04-27 16:09 | 61.71757 | -4.45251 | 26229 ft | 457 kts | 97° |
| 2026-04-27 16:09 | 61.71126 | -4.38656 | 26526 ft | 459 kts | 97° |
| 2026-04-27 16:10 | 61.69857 | -4.25458 | 27148 ft | 463 kts | 97° |
| 2026-04-27 16:10 | 61.68558 | -4.12097 | 27790 ft | 466 kts | 96° |
| 2026-04-27 16:11 | 61.67899 | -4.05390 | 28091 ft | 468 kts | 96° |
| 2026-04-27 16:11 | 61.66581 | -3.91980 | 28659 ft | 472 kts | 96° |
| 2026-04-27 16:12 | 61.65228 | -3.78371 | 29186 ft | 476 kts | 96° |
| 2026-04-27 16:12 | 61.64542 | -3.71538 | 29434 ft | 478 kts | 96° |
| 2026-04-27 16:12 | 61.63150 | -3.57859 | 29907 ft | 481 kts | 96° |
| 2026-04-27 16:13 | 61.62440 | -3.50952 | 30176 ft | 482 kts | 96° |
| 2026-04-27 16:13 | 61.61011 | -3.37211 | 30818 ft | 479 kts | 96° |
| 2026-04-27 16:13 | 61.60300 | -3.30362 | 31082 ft | 479 kts | 96° |
| 2026-04-27 16:14 | 61.58882 | -3.16783 | 31590 ft | 478 kts | 96° |
| 2026-04-27 16:14 | 61.57432 | -3.03119 | 32103 ft | 477 kts | 95° |
| 2026-04-27 16:15 | 61.55981 | -2.89519 | 32617 ft | 477 kts | 95° |
| 2026-04-27 16:15 | 61.54514 | -2.75942 | 33176 ft | 475 kts | 95° |
| 2026-04-27 16:16 | 61.53048 | -2.62541 | 33739 ft | 473 kts | 95° |
| 2026-04-27 16:16 | 61.51571 | -2.49119 | 34239 ft | 472 kts | 94° |
| 2026-04-27 16:17 | 61.50093 | -2.35726 | 34670 ft | 472 kts | 95° |
| 2026-04-27 16:17 | 61.48592 | -2.22360 | 35052 ft | 472 kts | 95° |
| 2026-04-27 16:18 | 61.47078 | -2.09060 | 35391 ft | 472 kts | 95° |
| 2026-04-27 16:18 | 61.45554 | -1.95798 | 35380 ft | 468 kts | 95° |
| 2026-04-27 16:19 | 61.44025 | -1.82597 | 35385 ft | 467 kts | 95° |
| 2026-04-27 16:20 | 61.40939 | -1.56178 | 35396 ft | 467 kts | 95° |
| 2026-04-27 16:21 | 61.38584 | -1.36429 | 35436 ft | 468 kts | 95° |
| 2026-04-27 16:22 | 61.35670 | -1.12371 | 35426 ft | 467 kts | 95° |
| 2026-04-27 16:22 | 61.33261 | -0.92677 | 35421 ft | 467 kts | 95° |
| 2026-04-27 16:23 | 61.30828 | -0.73079 | 35431 ft | 465 kts | 95° |
| 2026-04-27 16:24 | 61.29187 | -0.60059 | 35431 ft | 464 kts | 96° |
| 2026-04-27 16:25 | 61.25885 | -0.34210 | 35434 ft | 463 kts | 96° |
| 2026-04-27 16:26 | 61.22538 | -0.08367 | 35431 ft | 463 kts | 96° |
| 2026-04-27 16:27 | 61.19145 | 0.17331 | 35439 ft | 462 kts | 96° |
| 2026-04-27 16:28 | 61.14822 | 0.49410 | 35439 ft | 463 kts | 97° |
| 2026-04-27 16:29 | 61.10419 | 0.81478 | 35436 ft | 461 kts | 98° |
| 2026-04-27 16:30 | 61.06851 | 1.06975 | 35444 ft | 462 kts | 98° |
| 2026-04-27 16:31 | 61.02345 | 1.38680 | 35493 ft | 462 kts | 99° |
| 2026-04-27 16:32 | 60.99600 | 1.57642 | 35448 ft | 459 kts | 99° |
| 2026-04-27 16:33 | 60.96830 | 1.76538 | 35447 ft | 460 kts | 99° |
| 2026-04-27 16:33 | 60.94978 | 1.89127 | 35451 ft | 460 kts | 99° |
| 2026-04-27 16:34 | 60.93116 | 2.01696 | 35449 ft | 460 kts | 100° |
| 2026-04-27 16:34 | 60.91218 | 2.14281 | 35475 ft | 461 kts | 101° |
| 2026-04-27 16:35 | 60.89318 | 2.26849 | 35449 ft | 461 kts | 101° |
| 2026-04-27 16:36 | 60.86456 | 2.45701 | 35445 ft | 461 kts | 101° |
| 2026-04-27 16:36 | 60.84528 | 2.58190 | 35449 ft | 462 kts | 102° |
| 2026-04-27 16:37 | 60.82577 | 2.70754 | 35434 ft | 463 kts | 102° |
| 2026-04-27 16:37 | 60.80611 | 2.83350 | 35469 ft | 464 kts | 102° |
| 2026-04-27 16:38 | 60.78638 | 2.95944 | 35459 ft | 464 kts | 102° |
| 2026-04-27 16:38 | 60.76648 | 3.08550 | 35456 ft | 465 kts | 103° |
| 2026-04-27 16:39 | 60.74656 | 3.21061 | 35454 ft | 465 kts | 103° |
| 2026-04-27 16:39 | 60.73648 | 3.27341 | 35121 ft | 465 kts | 103° |
| 2026-04-27 16:39 | 60.72636 | 3.33631 | 33618 ft | 468 kts | 103° |
| 2026-04-27 16:39 | 60.71612 | 3.39991 | 31922 ft | 473 kts | 103° |
| 2026-04-27 16:40 | 60.70584 | 3.46360 | 30599 ft | 471 kts | 104° |
| 2026-04-27 16:40 | 60.69553 | 3.52697 | 29281 ft | 464 kts | 104° |
| 2026-04-27 16:40 | 60.68538 | 3.58882 | 28071 ft | 455 kts | 105° |
| 2026-04-27 16:40 | 60.67539 | 3.64953 | 26924 ft | 447 kts | 105° |
| 2026-04-27 16:41 | 60.66559 | 3.70914 | 25807 ft | 439 kts | 105° |
| 2026-04-27 16:41 | 60.65594 | 3.76756 | 24723 ft | 432 kts | 105° |
| 2026-04-27 16:41 | 60.64640 | 3.82506 | 23620 ft | 425 kts | 106° |
| 2026-04-27 16:41 | 60.63696 | 3.88188 | 22647 ft | 422 kts | 106° |
| 2026-04-27 16:42 | 60.62760 | 3.93808 | 21858 ft | 416 kts | 106° |
| 2026-04-27 16:42 | 60.61652 | 3.99229 | 21175 ft | 412 kts | 114° |
| 2026-04-27 16:42 | 60.60424 | 4.04397 | 20688 ft | 400 kts | 113° |
| 2026-04-27 16:42 | 60.59232 | 4.09443 | 20247 ft | 390 kts | 113° |
| 2026-04-27 16:43 | 60.57907 | 4.14246 | 19402 ft | 391 kts | 126° |
| 2026-04-27 16:43 | 60.56067 | 4.18332 | 18358 ft | 393 kts | 133° |
| 2026-04-27 16:43 | 60.54148 | 4.22282 | 17233 ft | 392 kts | 133° |
| 2026-04-27 16:43 | 60.52224 | 4.26195 | 16274 ft | 388 kts | 134° |
| 2026-04-27 16:44 | 60.50355 | 4.29982 | 15432 ft | 381 kts | 134° |
| 2026-04-27 16:44 | 60.48505 | 4.33727 | 14847 ft | 367 kts | 134° |
| 2026-04-27 16:44 | 60.46733 | 4.37315 | 14395 ft | 352 kts | 134° |
| 2026-04-27 16:44 | 60.45033 | 4.40756 | 13891 ft | 338 kts | 134° |
| 2026-04-27 16:45 | 60.43373 | 4.44120 | 13074 ft | 336 kts | 134° |
| 2026-04-27 16:45 | 60.41752 | 4.47408 | 12602 ft | 323 kts | 134° |
| 2026-04-27 16:45 | 60.40211 | 4.50530 | 12186 ft | 315 kts | 134° |
| 2026-04-27 16:45 | 60.38653 | 4.53681 | 11742 ft | 316 kts | 134° |
| 2026-04-27 16:46 | 60.37098 | 4.56812 | 11326 ft | 315 kts | 134° |
| 2026-04-27 16:46 | 60.35546 | 4.59930 | 10897 ft | 313 kts | 134° |
| 2026-04-27 16:46 | 60.34015 | 4.63011 | 10488 ft | 309 kts | 134° |
| 2026-04-27 16:46 | 60.32515 | 4.66024 | 10100 ft | 298 kts | 134° |
| 2026-04-27 16:47 | 60.31070 | 4.68920 | 9879 ft | 291 kts | 134° |
| 2026-04-27 16:47 | 60.29631 | 4.71802 | 9760 ft | 292 kts | 133° |
| 2026-04-27 16:47 | 60.28196 | 4.74684 | 9610 ft | 291 kts | 134° |
| 2026-04-27 16:47 | 60.26761 | 4.77555 | 9488 ft | 290 kts | 134° |
| 2026-04-27 16:48 | 60.25322 | 4.80415 | 9248 ft | 290 kts | 134° |
| 2026-04-27 16:48 | 60.23895 | 4.83250 | 8823 ft | 286 kts | 134° |
| 2026-04-27 16:48 | 60.22486 | 4.86054 | 8399 ft | 283 kts | 134° |
| 2026-04-27 16:49 | 60.19692 | 4.91601 | 7571 ft | 281 kts | 134° |
| 2026-04-27 16:49 | 60.18343 | 4.94272 | 7159 ft | 278 kts | 134° |
| 2026-04-27 16:49 | 60.16971 | 4.96988 | 6730 ft | 276 kts | 134° |
| 2026-04-27 16:49 | 60.15609 | 4.99685 | 6305 ft | 274 kts | 134° |
| 2026-04-27 16:50 | 60.14260 | 5.02353 | 5892 ft | 270 kts | 134° |
| 2026-04-27 16:50 | 60.12929 | 5.04981 | 5496 ft | 266 kts | 135° |
| 2026-04-27 16:50 | 60.11615 | 5.07570 | 5088 ft | 262 kts | 135° |
| 2026-04-27 16:50 | 60.10360 | 5.10042 | 4869 ft | 247 kts | 135° |
| 2026-04-27 16:51 | 60.09197 | 5.12442 | 4684 ft | 232 kts | 126° |
| 2026-04-27 16:51 | 60.08506 | 5.15289 | 4539 ft | 228 kts | 103° |
| 2026-04-27 16:51 | 60.08437 | 5.18433 | 4420 ft | 228 kts | 81° |
| 2026-04-27 16:51 | 60.08983 | 5.21394 | 4014 ft | 224 kts | 60° |
| 2026-04-27 16:52 | 60.09759 | 5.24000 | 3973 ft | 212 kts | 58° |
| 2026-04-27 16:52 | 60.10748 | 5.26023 | 3820 ft | 196 kts | 35° |
| 2026-04-27 16:52 | 60.11961 | 5.27085 | 3487 ft | 191 kts | 14° |
| 2026-04-27 16:52 | 60.13248 | 5.27184 | 3232 ft | 183 kts | 353° |
| 2026-04-27 16:53 | 60.14509 | 5.26765 | 2997 ft | 186 kts | 351° |
| 2026-04-27 16:53 | 60.15787 | 5.26341 | 2742 ft | 185 kts | 351° |
| 2026-04-27 16:53 | 60.17051 | 5.25921 | 2502 ft | 183 kts | 351° |
| 2026-04-27 16:53 | 60.18252 | 5.25521 | 2241 ft | 167 kts | 350° |
| 2026-04-27 16:54 | 60.19362 | 5.25151 | 2013 ft | 157 kts | 350° |
| 2026-04-27 16:54 | 60.20412 | 5.24801 | 1799 ft | 153 kts | 350° |
| 2026-04-27 16:54 | 60.21452 | 5.24454 | 1586 ft | 151 kts | 349° |
| 2026-04-27 16:54 | 60.22482 | 5.24110 | 1384 ft | 148 kts | 349° |
| 2026-04-27 16:55 | 60.23468 | 5.23781 | 1174 ft | 140 kts | 348° |
| 2026-04-27 16:55 | 60.24428 | 5.23454 | 951 ft | 139 kts | 348° |
| 2026-04-27 16:55 | 60.25367 | 5.23139 | 770 ft | 135 kts | 349° |
| 2026-04-27 16:55 | 60.26296 | 5.22840 | 584 ft | 136 kts | 348° |
| 2026-04-27 16:56 | 60.27215 | 5.22524 | 393 ft | 135 kts | 348° |
| 2026-04-27 16:56 | 60.28139 | 5.22216 | 211 ft | 135 kts | 349° |
| 2026-04-27 16:56 | 60.29015 | 5.21926 | 161 ft | 115 kts | 351° |
| 2026-04-27 16:56 | 60.29673 | 5.21713 | 149 ft | 76 kts | 351° |
| 2026-04-27 16:57 | 60.29959 | 5.21612 | 161 ft | 18 kts | 351° |
| 2026-04-27 16:57 | 60.30039 | 5.21713 | 161 ft | 9 kts | 65° |
| 2026-04-27 16:57 | 60.30045 | 5.21752 | 160 ft | 8 kts | 74° |
| 2026-04-27 16:57 | 60.30051 | 5.21800 | 160 ft | 0 kts | 77° |
| 2026-04-27 16:58 | 60.30052 | 5.21829 | 160 ft | 7 kts | 89° |
| 2026-04-27 16:58 | 60.29982 | 5.21917 | 156 ft | 17 kts | 182° |
| 2026-04-27 16:58 | 60.29857 | 5.21952 | 152 ft | 21 kts | 167° |
| 2026-04-27 16:59 | 60.29720 | 5.22009 | 148 ft | 20 kts | 170° |
| 2026-04-27 16:59 | 60.29583 | 5.22058 | 150 ft | 20 kts | 171° |
| 2026-04-27 16:59 | 60.29458 | 5.22095 | 156 ft | 17 kts | 172° |
| 2026-04-27 16:59 | 60.29359 | 5.22126 | 159 ft | 13 kts | 171° |
| 2026-04-27 17:00 | 60.29244 | 5.22165 | 163 ft | 12 kts | 170° |
| 2026-04-27 17:00 | 60.29085 | 5.22258 | 164 ft | 11 kts | 124° |
| 2026-04-27 17:00 | 60.29049 | 5.22382 | 167 ft | 11 kts | 117° |
| 2026-04-27 17:01 | 60.29035 | 5.22543 | 172 ft | 11 kts | 77° |
| 2026-04-27 17:01 | 60.29050 | 5.22681 | 175 ft | 9 kts | 101° |
| 2026-04-27 17:01 | 60.29001 | 5.22727 | 173 ft | 0 kts | 179° |
| 2026-04-27 17:01 | 60.28993 | 5.22727 | 173 ft | 0 kts | 180° |
| 2026-04-27 17:02 | 60.28995 | 5.22727 | 173 ft | 1 kts | 180° |